Port Au Choix, Canada
Current Conditions -  °F | °C
As of 6:43 PM on Monday 20 Oct 2014 (Local Time) from CWDH Reporting Station
Broken Clouds Broken Clouds  
Wind Chill: 32°   Ceiling: 900
Heat Index: 44°   Visibility: 2.5mi
Dew Point: 39°   Wind: 43mph
Humidity: 84%   Direction: 210°SSW
Pressure: 29.21"   Gusts: 53mph
Location:  50.72°N, 57.37°W
Report Text: CWDH 202043Z AUTO 21037G46KT 2 1/2SM BKN009 BKN027 07/04 A2921 RMK PK WND 21048/// T00670041 P0008 WSI/SWOB
Loading
Personal Weather Stations






























Interactive Weather Map New forecast layout! Learn more

10-Day Weather Forecast

Advertisements
Track Severe Weather on mobile